createdAt,value
2019-03-01T00:01:24.805Z,22.5
2019-03-01T00:04:30.863Z,22.6
2019-03-01T00:07:36.828Z,22.6
2019-03-01T00:10:42.890Z,22.6
2019-03-01T00:13:49.080Z,22.7
2019-03-01T00:16:55.217Z,22.7
2019-03-01T00:20:01.273Z,22.8
2019-03-01T00:23:07.145Z,22.8
2019-03-01T00:26:13.088Z,22.8
2019-03-01T00:29:19.049Z,22.9
2019-03-01T00:32:25.008Z,22.8
2019-03-01T00:35:30.969Z,23
2019-03-01T00:38:37.033Z,22.9
2019-03-01T00:41:43.094Z,23
2019-03-01T00:44:49.466Z,23
2019-03-01T00:47:55.593Z,23
2019-03-01T00:51:01.456Z,23.1
2019-03-01T00:54:07.446Z,23.1
2019-03-01T00:57:13.443Z,23.1
2019-03-01T01:00:19.577Z,23.2
2019-03-01T01:03:25.637Z,23.3
2019-03-01T01:06:31.696Z,23.1
2019-03-01T01:09:37.655Z,22.9
2019-03-01T01:12:43.616Z,22.9
2019-03-01T01:15:49.579Z,22.9
2019-03-01T01:18:55.646Z,22.9
2019-03-01T01:22:01.711Z,22.9
2019-03-01T01:25:07.872Z,22.9
2019-03-01T01:28:13.928Z,22.9
2019-03-01T01:31:19.996Z,23
2019-03-01T01:34:25.869Z,22.9
2019-03-01T01:37:32.012Z,22.9
2019-03-01T01:40:38.072Z,22.8
2019-03-01T01:43:44.035Z,22.8
2019-03-01T01:46:49.909Z,22.8
2019-03-01T01:49:55.958Z,22.8
2019-03-01T01:53:02.122Z,22.8
2019-03-01T01:56:08.195Z,22.7
2019-03-01T01:59:14.256Z,22.7
2019-03-01T02:02:20.195Z,22.7
2019-03-01T02:05:26.266Z,22.7
2019-03-01T02:08:32.143Z,22.7
2019-03-01T02:11:38.190Z,22.6
2019-03-01T02:14:44.147Z,22.6
2019-03-01T02:17:50.205Z,22.5
2019-03-01T02:20:56.162Z,22.5
2019-03-01T02:24:02.225Z,22.4
2019-03-01T02:27:08.169Z,22.4
2019-03-01T02:30:14.158Z,22.3
2019-03-01T02:33:20.211Z,22.3
2019-03-01T02:36:26.371Z,22.2
2019-03-01T02:39:32.346Z,22.4
2019-03-01T02:42:38.312Z,22.2
2019-03-01T02:45:44.580Z,22.2
2019-03-01T02:48:53.295Z,22.1
2019-03-01T02:51:59.454Z,22.1
2019-03-01T02:55:05.617Z,22.1
2019-03-01T02:58:11.681Z,22.1
2019-03-01T03:01:17.840Z,22.1
2019-03-01T03:04:24.004Z,22.1
2019-03-01T03:07:30.064Z,22
2019-03-01T03:10:36.021Z,22
2019-03-01T03:13:42.166Z,22
2019-03-01T03:16:48.243Z,22
2019-03-01T03:19:54.422Z,22.1
2019-03-01T03:23:00.428Z,22
2019-03-01T03:26:06.641Z,22
2019-03-01T03:29:12.613Z,22
2019-03-01T03:32:18.768Z,22
2019-03-01T03:35:28.313Z,22
2019-03-01T03:38:34.382Z,22
2019-03-01T03:41:40.545Z,22
2019-03-01T03:44:46.699Z,22.3
2019-03-01T03:47:52.873Z,22.1
2019-03-01T03:50:58.834Z,22
2019-03-01T03:54:04.993Z,22
2019-03-01T03:57:11.053Z,21.9
2019-03-01T04:00:17.017Z,22
2019-03-01T04:03:23.284Z,21.9
2019-03-01T04:06:29.239Z,21.8
2019-03-01T04:09:35.202Z,21.7
2019-03-01T04:12:41.173Z,21.6
2019-03-01T04:15:47.219Z,21.6
2019-03-01T04:18:53.278Z,21.7
2019-03-01T04:21:59.175Z,21.6
2019-03-01T04:25:05.198Z,21.5
2019-03-01T04:28:11.077Z,21.4
2019-03-01T04:31:17.118Z,21.5
2019-03-01T04:34:23.296Z,21.4
2019-03-01T04:37:29.347Z,21.4
2019-03-01T04:40:35.509Z,21.4
2019-03-01T04:43:41.447Z,21.3
2019-03-01T04:46:47.433Z,21.3
2019-03-01T04:49:53.490Z,21.3
2019-03-01T04:52:59.552Z,21.2
2019-03-01T04:56:05.513Z,21.4
2019-03-01T04:59:11.577Z,21.2
2019-03-01T05:02:17.650Z,21.2
2019-03-01T05:05:23.617Z,21.2
2019-03-01T05:08:29.664Z,21.2
2019-03-01T05:11:35.618Z,21.1
2019-03-01T05:14:41.689Z,21.1
2019-03-01T05:17:47.751Z,21.1
2019-03-01T05:20:53.633Z,21.1
2019-03-01T05:23:59.663Z,21.1
2019-03-01T05:27:05.545Z,21
2019-03-01T05:30:11.705Z,21
2019-03-01T05:33:17.591Z,21
2019-03-01T05:36:23.625Z,21
2019-03-01T05:39:29.688Z,20.9
2019-03-01T05:42:35.781Z,20.8
2019-03-01T05:45:42.111Z,20.9
2019-03-01T05:48:48.164Z,22
2019-03-01T05:51:54.230Z,21.5
2019-03-01T05:55:00.298Z,21.6
2019-03-01T05:58:06.214Z,21.4
2019-03-01T06:01:21.839Z,22.4
2019-03-01T06:04:27.707Z,22.1
2019-03-01T06:07:33.764Z,22
2019-03-01T06:10:39.821Z,21.7
2019-03-01T06:13:48.033Z,21.5
2019-03-01T06:16:53.991Z,21.9
2019-03-01T06:19:59.859Z,21.9
2019-03-01T06:23:05.773Z,22.9
2019-03-01T06:26:11.832Z,22
2019-03-01T06:29:18.022Z,22.1
2019-03-01T06:32:23.906Z,21.5
2019-03-01T06:35:30.011Z,21.8
2019-03-01T06:38:36.046Z,21.6
2019-03-01T06:41:42.110Z,22.1
2019-03-01T06:44:48.169Z,21.5
2019-03-01T06:47:54.233Z,22
2019-03-01T06:51:00.115Z,21.9
2019-03-01T06:54:06.156Z,21.8
2019-03-01T06:57:12.113Z,21.9
2019-03-01T07:00:18.178Z,21.6
2019-03-01T07:03:24.107Z,22.3
2019-03-01T07:06:30.113Z,21.6
2019-03-01T07:09:36.098Z,21.5
2019-03-01T07:12:43.868Z,20.7
2019-03-01T07:15:49.832Z,21.1
2019-03-01T07:18:55.906Z,21.1
2019-03-01T07:22:01.950Z,20.9
2019-03-01T07:25:11.184Z,21.5
2019-03-01T07:28:17.237Z,21.4
2019-03-01T07:31:23.121Z,20.8
2019-03-01T07:34:29.162Z,22.7
2019-03-01T07:37:35.138Z,22.3
2019-03-01T07:40:41.182Z,21.2
2019-03-01T07:43:47.310Z,21
2019-03-01T07:46:54.766Z,21.1
2019-03-01T07:50:00.805Z,21
2019-03-01T07:53:09.626Z,20.4
2019-03-01T07:56:15.689Z,21.1
2019-03-01T07:59:23.853Z,21.4
2019-03-01T08:02:40.737Z,20.7
2019-03-01T08:05:49.252Z,20.7
2019-03-01T08:08:55.409Z,20.2
2019-03-01T08:12:10.298Z,21
2019-03-01T08:15:16.242Z,21
2019-03-01T08:18:22.327Z,20.8
2019-03-01T08:21:28.269Z,21.6
2019-03-01T08:24:34.532Z,20.7
2019-03-01T08:27:48.477Z,22.4
2019-03-01T08:30:56.195Z,20.2
2019-03-01T08:34:02.449Z,20.4
2019-03-01T08:37:08.918Z,20.9
2019-03-01T08:40:22.047Z,20.7
2019-03-01T08:43:28.225Z,20.7
2019-03-01T08:46:34.272Z,20.5
2019-03-01T08:49:50.062Z,20.8
2019-03-01T08:52:56.019Z,21.1
2019-03-01T08:56:02.796Z,20.9
2019-03-01T08:59:17.345Z,20.8
2019-03-01T09:02:24.240Z,20.6
2019-03-01T09:05:30.117Z,20.6
2019-03-01T09:08:36.159Z,20.9
2019-03-01T09:11:48.641Z,20.9
2019-03-01T09:14:54.734Z,21.1
2019-03-01T09:18:01.452Z,20.8
2019-03-01T09:21:13.687Z,20.9
2019-03-01T09:24:19.886Z,20.9
2019-03-01T09:27:32.219Z,20.7
2019-03-01T09:30:43.441Z,20.7
2019-03-01T09:33:49.949Z,20.7
2019-03-01T09:37:01.642Z,20.5
2019-03-01T09:40:07.600Z,20.7
2019-03-01T09:43:13.779Z,20.4
2019-03-01T09:46:26.217Z,20.4
2019-03-01T09:49:33.907Z,20.5
2019-03-01T09:52:40.047Z,20.4
2019-03-01T09:55:47.932Z,20.6
2019-03-01T09:58:54.012Z,20.6
2019-03-01T10:01:59.976Z,20.4
2019-03-01T10:05:05.857Z,20.4
2019-03-01T10:08:11.890Z,20.4
2019-03-01T10:11:17.955Z,20.3
2019-03-01T10:14:23.826Z,20.5
2019-03-01T10:17:29.717Z,20.5
2019-03-01T10:20:35.733Z,20.5
2019-03-01T10:23:41.788Z,21.3
2019-03-01T10:26:47.749Z,20.5
2019-03-01T10:29:53.714Z,20.6
2019-03-01T10:32:59.787Z,20.9
2019-03-01T10:36:06.781Z,20.7
2019-03-01T10:39:12.716Z,20.5
2019-03-01T10:42:18.787Z,20.5
2019-03-01T10:45:24.842Z,20.6
2019-03-01T10:48:30.717Z,20.3
2019-03-01T10:51:37.068Z,20.1
2019-03-01T10:54:46.019Z,20.2
2019-03-01T10:57:53.108Z,20.3
2019-03-01T11:00:59.062Z,20.2
2019-03-01T11:04:05.418Z,20.2
2019-03-01T11:07:11.298Z,20.2
2019-03-01T11:10:17.347Z,20.3
2019-03-01T11:13:23.299Z,20.3
2019-03-01T11:16:29.352Z,22.3
2019-03-01T11:19:35.338Z,20.9
2019-03-01T11:22:41.382Z,21.4
2019-03-01T11:25:50.613Z,20.7
2019-03-01T11:28:56.580Z,21.2
2019-03-01T11:32:02.543Z,21.1
2019-03-01T11:35:08.611Z,21
2019-03-01T11:38:17.845Z,21.3
2019-03-01T11:41:23.893Z,22.1
2019-03-01T11:44:29.863Z,22.4
2019-03-01T12:13:11.959Z,23.3
2019-03-01T12:16:17.815Z,21.7
2019-03-01T12:19:23.792Z,21.7
2019-03-01T12:22:30.782Z,21.7
2019-03-01T12:25:36.715Z,21.7
2019-03-01T12:28:42.682Z,21.6
2019-03-01T12:31:48.661Z,21.8
2019-03-01T12:34:54.921Z,21.5
2019-03-01T12:38:01.908Z,21.5
2019-03-01T12:41:07.863Z,21.3
2019-03-01T12:44:13.929Z,21.4
2019-03-01T12:47:19.914Z,21.4
2019-03-01T12:50:25.948Z,21.3
2019-03-01T12:53:31.928Z,21.1
2019-03-01T12:56:38.068Z,20.9
2019-03-01T12:59:44.133Z,20.9
2019-03-01T13:02:50.209Z,21.4
2019-03-01T13:05:56.191Z,21.2
2019-03-01T13:09:08.418Z,21.3
2019-03-01T13:12:15.964Z,21.3
2019-03-01T13:15:28.797Z,21.1
2019-03-01T13:18:34.757Z,21.6
2019-03-01T13:21:40.708Z,21.5
2019-03-01T13:24:54.950Z,21.7
2019-03-01T13:28:00.920Z,21.7
2019-03-01T13:31:11.364Z,21.4
2019-03-01T13:34:18.071Z,21.7
2019-03-01T13:37:24.130Z,21.4
2019-03-01T13:40:30.072Z,21.6
2019-03-01T13:43:36.137Z,21.4
2019-03-01T13:46:42.055Z,21.4
2019-03-01T13:49:47.951Z,21.5
2019-03-01T13:52:54.941Z,21.8
2019-03-01T13:56:01.815Z,21.4
2019-03-01T13:59:07.774Z,21.2
2019-03-01T14:02:13.853Z,21.2
2019-03-01T14:05:19.903Z,21.2
2019-03-01T14:08:25.780Z,21.3
2019-03-01T14:11:31.827Z,21.1
2019-03-01T14:14:37.723Z,21.2
2019-03-01T14:17:43.800Z,21
2019-03-01T14:20:49.714Z,21.1
2019-03-01T14:24:02.418Z,20.9
2019-03-01T14:27:08.308Z,21
2019-03-01T14:30:14.441Z,21.4
2019-03-01T14:33:20.414Z,21.4
2019-03-01T14:36:26.586Z,21.3
2019-03-01T14:39:32.627Z,21.4
2019-03-01T14:42:38.602Z,21.4
2019-03-01T14:45:50.902Z,21.4
2019-03-01T14:48:57.187Z,21.3
2019-03-01T14:52:03.250Z,21.3
2019-03-01T14:55:09.191Z,21.2
2019-03-01T14:58:15.251Z,21.2
2019-03-01T15:01:28.380Z,21.3
2019-03-01T15:04:34.462Z,21.4
2019-03-01T15:07:40.523Z,21.3
2019-03-01T15:10:46.597Z,21.4
2019-03-01T15:13:52.622Z,21.2
2019-03-01T15:16:58.502Z,21.4
2019-03-01T15:20:04.466Z,21.4
2019-03-01T15:23:10.500Z,21.4
2019-03-01T15:26:18.606Z,21.3
2019-03-01T15:29:33.634Z,21.5
2019-03-01T15:32:39.451Z,21.5
2019-03-01T15:35:45.398Z,21.4
2019-03-01T15:38:54.321Z,21.4
2019-03-01T15:42:00.196Z,21.6
2019-03-01T15:45:06.550Z,21.6
2019-03-01T15:48:12.539Z,21.5
2019-03-01T15:51:18.785Z,21.5
2019-03-01T15:54:24.750Z,21.5
2019-03-01T15:57:36.560Z,21.5
2019-03-01T16:00:42.593Z,21.4
2019-03-01T16:03:48.520Z,21.4
2019-03-01T16:07:00.442Z,21.6
2019-03-01T16:10:06.404Z,21.6
2019-03-01T16:13:13.795Z,21.4
2019-03-01T16:16:19.969Z,21.6
2019-03-01T16:19:25.929Z,21.4
2019-03-01T16:22:31.801Z,21.5
2019-03-01T16:25:37.739Z,21.4
2019-03-01T16:28:43.705Z,21.3
2019-03-01T16:31:49.581Z,21.5
2019-03-01T16:34:55.627Z,21.5
2019-03-01T16:38:03.018Z,21.4
2019-03-01T16:41:09.172Z,21.4
2019-03-01T16:44:15.047Z,21.4
2019-03-01T16:47:20.987Z,21.2
2019-03-01T16:50:28.900Z,21.3
2019-03-01T16:53:40.479Z,21.2
2019-03-01T16:56:47.473Z,21.2
2019-03-01T16:59:53.348Z,21.2
2019-03-01T17:02:59.398Z,21.2
2019-03-01T17:06:05.343Z,21.3
2019-03-01T17:09:17.652Z,21.2
2019-03-01T17:12:23.579Z,21.2
2019-03-01T17:15:29.572Z,21.2
2019-03-01T17:18:35.531Z,21.1
2019-03-01T17:21:41.416Z,21
2019-03-01T17:24:53.705Z,21.1
2019-03-01T17:27:59.657Z,21
2019-03-01T17:31:05.721Z,20.9
2019-03-01T17:34:11.593Z,21.1
2019-03-01T17:37:17.639Z,21
2019-03-01T17:40:23.708Z,21
2019-03-01T17:43:37.751Z,20.9
2019-03-01T17:46:43.716Z,21.1
2019-03-01T17:49:49.775Z,21
2019-03-01T17:52:55.792Z,21.1
2019-03-01T17:56:01.794Z,21.1
2019-03-01T17:59:14.954Z,21
2019-03-01T18:02:20.882Z,21.1
2019-03-01T18:05:26.785Z,21.1
2019-03-01T18:08:35.733Z,21.1
2019-03-01T18:11:46.133Z,21.2
2019-03-01T18:14:52.009Z,21.2
2019-03-01T18:17:58.047Z,21.2
2019-03-01T18:21:04.009Z,21.3
2019-03-01T18:24:16.400Z,21.3
2019-03-01T18:27:22.489Z,21.3
2019-03-01T18:30:30.610Z,21.3
2019-03-01T18:33:36.659Z,21.3
2019-03-01T18:36:46.405Z,21.3
2019-03-01T18:39:55.231Z,21.3
2019-03-01T18:43:01.293Z,21.3
2019-03-01T18:46:07.171Z,21.3
2019-03-01T18:49:21.613Z,21.3
2019-03-01T18:52:27.564Z,21.4
2019-03-01T18:55:33.528Z,21.4
2019-03-01T18:58:39.493Z,21.4
2019-03-01T19:01:52.312Z,21.4
2019-03-01T19:05:05.602Z,21.4
2019-03-01T19:08:11.562Z,21.5
2019-03-01T19:11:17.658Z,21.5
2019-03-01T19:14:23.534Z,21.5
2019-03-01T19:17:29.577Z,21.5
2019-03-01T19:20:43.013Z,21.5
2019-03-01T19:23:48.987Z,21.5
2019-03-01T19:26:54.934Z,21.6
2019-03-01T19:30:00.900Z,21.6
2019-03-01T19:33:14.439Z,21.6
2019-03-01T19:36:22.134Z,21.6
2019-03-01T19:39:28.094Z,21.6
2019-03-01T19:42:39.275Z,21.7
2019-03-01T19:45:45.336Z,21.7
2019-03-01T19:48:51.211Z,21.7
2019-03-01T19:51:58.994Z,21.7
2019-03-01T19:55:07.917Z,21.8
2019-03-01T19:58:18.081Z,21.8
2019-03-01T20:01:24.042Z,21.9
2019-03-01T20:04:30.000Z,22
2019-03-01T20:07:35.960Z,22
2019-03-01T20:10:41.962Z,22.1
2019-03-01T20:13:55.155Z,22.1
2019-03-01T20:17:01.119Z,22.2
2019-03-01T20:20:06.990Z,22.3
2019-03-01T20:23:13.042Z,22.4
2019-03-01T20:26:19.019Z,22.4
2019-03-01T20:29:30.994Z,22.4
2019-03-01T20:32:36.881Z,22.6
2019-03-01T20:35:43.319Z,22.6
2019-03-01T20:38:49.198Z,22.7
2019-03-01T20:41:58.321Z,22.8
2019-03-01T20:45:04.294Z,22.8
2019-03-01T20:48:12.057Z,22.8
2019-03-01T20:51:18.033Z,22.8
2019-03-01T20:54:31.521Z,22.9
2019-03-01T20:57:37.410Z,23
2019-03-01T21:00:43.393Z,23
2019-03-01T21:03:49.356Z,23
2019-03-01T21:06:55.416Z,23
2019-03-01T21:10:01.292Z,23.1
2019-03-01T21:13:12.432Z,23.2
2019-03-01T21:16:18.942Z,23.3
2019-03-01T21:19:24.884Z,23.2
2019-03-01T21:22:30.839Z,23.2
2019-03-01T21:25:43.037Z,23.3
2019-03-01T21:28:49.007Z,23.4
2019-03-01T21:31:54.972Z,23.4
2019-03-01T21:35:00.845Z,23.4
2019-03-01T21:38:14.798Z,23.5
2019-03-01T21:41:20.830Z,23.6
2019-03-01T21:44:28.944Z,23.6
2019-03-01T21:47:34.912Z,23.6
2019-03-01T21:50:43.533Z,23.7
2019-03-01T21:53:49.613Z,23.7
2019-03-01T21:57:14.909Z,23.7
2019-03-01T22:00:20.867Z,23.8
2019-03-01T22:03:37.782Z,23.8
2019-03-01T22:06:45.688Z,23.8
2019-03-01T22:09:51.751Z,23.9
2019-03-01T22:13:04.213Z,23.9
2019-03-01T22:16:10.224Z,24
2019-03-01T22:19:21.654Z,24
2019-03-01T22:22:27.546Z,24
2019-03-01T22:25:40.179Z,24.1
2019-03-01T22:28:46.088Z,24.1
2019-03-01T22:31:52.106Z,24.2
2019-03-01T22:34:57.978Z,24.2
2019-03-01T22:38:12.725Z,24.2
2019-03-01T22:41:18.884Z,24.2
2019-03-01T22:44:24.945Z,24.2
2019-03-01T22:47:37.066Z,24.3
2019-03-01T22:50:43.932Z,24.3
2019-03-01T22:53:49.895Z,24.3
2019-03-01T22:56:55.954Z,24.3
2019-03-01T23:00:01.923Z,24.4
2019-03-01T23:03:07.794Z,24.4
2019-03-01T23:06:16.595Z,24.4
2019-03-01T23:09:22.559Z,24.5
2019-03-01T23:12:28.720Z,24.4
2019-03-01T23:15:34.601Z,24.5
2019-03-01T23:18:57.099Z,24.5
2019-03-01T23:22:03.064Z,24.5
2019-03-01T23:25:15.600Z,24.6
2019-03-01T23:28:21.670Z,24.6
2019-03-01T23:31:27.538Z,24.6
2019-03-01T23:34:42.472Z,24.6
2019-03-01T23:37:49.200Z,24.6
2019-03-01T23:40:55.126Z,24.7
2019-03-01T23:44:06.410Z,24.6
2019-03-01T23:47:13.303Z,24.7
2019-03-01T23:50:21.921Z,24.7
2019-03-01T23:53:30.824Z,24.7
2019-03-01T23:56:39.699Z,24.8
2019-03-01T23:59:45.741Z,24.8
